Terminal Aerodrome Forecast
Issued by NWS North Platte, NE

Home | Current Version | Previous Version | Graphics & Text | Print | Product List | Glossary On
Versions: 1 2 3 4 5 6 7 8 9 10 11 12
000
FTUS43 KLBF 042320
TAFVTN
TAF
KVTN 042320Z 0500/0524 12007KT P6SM OVC100
     FM051000 15006KT P6SM BKN008
      TEMPO 0511/0513 3SM BR OVC008
     FM051400 17008KT P6SM SCT060=

USA.gov is the U.S. government's official web portal to all federal, state and local government web resources and services.